メインページ
METAR-TAF:

METAR-TAF

空港 :

ラガーディア空港

ニューヨーク / ラガーディア, ニューヨーク, アメリカ合衆国

緯度: 40-46-45N, 経度: 073-52-48W, 海抜: 6m

現時点の気象観測

当レポートは1時間3分前の02:51(UTC)に作成
南/南西の風 4kt
気温 19°C
湿度 52%
気圧 1021 hPa
視程: 16.1km
高度25000ftの千切れ雲あり

METAR: KLGA 220251Z 20004KT 10SM BKN250 19/09 A3015 RMK AO2 SLP209 T01890089 58000

時間: 23:54 (03:54 UTC)

予報

当レポートは1時間20分前の02:34(UTC)に作成
予報は22日の 03時(UTC)から 23日の 06時(UTC)まで有効
の風 6kt
視程: 10km
高度25000ftの千切れ雲あり
22日の 0700時(UTC)から
南/南東の風 4kt
視程: 10km
高度10000ftの雲は散在している
高度25000ftの千切れ雲あり
22日の 1300時(UTC)から
東/南東の風 6kt
視程: 10km
高度7000ftの千切れ雲あり
22日の 1700時(UTC)から
東/南東の風 8kt
視程: 9.7km
高度3000ftの千切れ雲あり
高度5000ftの曇り
弱いにわか雨
22日の 2100時(UTC)から
東/北東の風 8kt
視程: 8.0km
高度1500ftの曇り
弱いにわか雨, 靄
23日の 0100時(UTC)から
の風 6kt
視程: 4.8km
高度800ftの曇り
弱いにわか雨, 靄

TAF: KLGA 220234Z 2203/2306 19006KT P6SM BKN250 FM220700 15004KT P6SM SCT100 BKN250 FM221300 12006KT P6SM BKN070 FM221700 12008KT 6SM -SHRA BKN030 OVC050 FM222100 07008KT 5SM -SHRA BR OVC015 FM230100 08006KT 3SM -SHRA BR OVC008

4,000以上の空港の気象観測と天気予報(METAR報とTAF報)

利用可能な観測所は地図上に黄色い丸と赤い丸で示す。

丸の上にカーソルを重ねると観測所名を参照できる。

次にクリックすると気象観測と天気予報を参照できる。

マップの切り替え:黒色「×」印の緑ボタンをクリックして拡大、「-」印の緑ボタンをクリックして縮小、緑色の三角印をクリックして隣りの地図に切り替え


METAR-TAF: